Time;durP1;ratioP1;P1;durP2;ratioP2;P2;SDS_P1;SDS_P2;PMS_P1;PMS_P2;Temp;Humidity;BMP_temperature;BMP_pressure;BME280_temperature;BME280_humidity;BME280_pressure;Samples;Min_cycle;Max_cycle;Signal;HPM_P1;HPM_P2
2021/08/09 00:01:13;;;;;;;14.48;9.18;;;;;;;;;;4898161;29;20555;-80
2021/08/09 00:03:39;;;;;;;16.88;10.13;;;;;;;;;;4898671;29;20079;-79
2021/08/09 00:06:11;;;;;;;14.10;9.55;;;;;;;;;;4905797;29;20492;-79
2021/08/09 00:08:38;;;;;;;12.07;10.20;;;;;;;;;;4902220;29;20064;-78
2021/08/09 00:11:03;;;;;;;11.93;10.43;;;;;;;;;;4903614;29;20028;-81
2021/08/09 00:13:29;;;;;;;13.68;9.75;;;;;;;;;;4902929;29;20052;-81
2021/08/09 00:15:57;;;;;;;16.92;10.82;;;;;;;;;;4901128;29;20028;-82
2021/08/09 00:18:24;;;;;;;15.38;10.43;;;;;;;;;;4899451;29;20036;-81
2021/08/09 00:20:49;;;;;;;13.50;9.35;;;;;;;;;;4899623;29;20036;-81
2021/08/09 00:23:15;;;;;;;15.90;10.52;;;;;;;;;;4899544;29;20036;-80
2021/08/09 00:25:40;;;;;;;17.35;10.63;;;;;;;;;;4912608;29;20035;-81
2021/08/09 00:28:06;;;;;;;15.40;9.95;;;;;;;;;;4906545;29;20076;-80
2021/08/09 00:30:31;;;;;;;14.52;10.57;;;;;;;;;;4908436;29;20044;-79
2021/08/09 00:32:57;;;;;;;14.30;10.40;;;;;;;;;;4904702;29;20485;-81
2021/08/09 00:35:22;;;;;;;17.80;10.10;;;;;;;;;;4907750;29;20036;-80
2021/08/09 00:37:48;;;;;;;12.88;10.48;;;;;;;;;;4905527;29;20415;-81
2021/08/09 00:40:13;;;;;;;16.50;10.40;;;;;;;;;;4906417;29;20099;-81
2021/08/09 00:42:39;;;;;;;14.38;10.38;;;;;;;;;;4906166;29;20440;-81
2021/08/09 00:45:05;;;;;;;12.15;9.75;;;;;;;;;;4908883;29;20088;-80
2021/08/09 00:47:30;;;;;;;14.13;9.52;;;;;;;;;;4902610;29;20088;-80
2021/08/09 00:49:56;;;;;;;14.05;10.15;;;;;;;;;;4907172;29;20403;-80
2021/08/09 00:52:22;;;;;;;13.57;10.05;;;;;;;;;;4907842;29;20031;-81
2021/08/09 00:54:48;;;;;;;12.63;9.70;;;;;;;;;;4908518;29;20035;-80
2021/08/09 00:57:14;;;;;;;15.60;10.57;;;;;;;;;;4901899;29;20065;-81
2021/08/09 00:59:40;;;;;;;14.20;10.55;;;;;;;;;;4907625;29;20036;-81
2021/08/09 01:02:06;;;;;;;15.15;10.52;;;;;;;;;;4908514;29;20063;-82
2021/08/09 01:04:31;;;;;;;11.93;10.38;;;;;;;;;;4906822;29;20040;-81
2021/08/09 01:06:57;;;;;;;16.15;9.93;;;;;;;;;;4898100;29;20043;-80
2021/08/09 01:09:22;;;;;;;15.80;11.48;;;;;;;;;;4905372;29;20508;-79
2021/08/09 01:11:53;;;;;;;15.07;10.77;;;;;;;;;;4905284;29;20488;-81
2021/08/09 01:14:24;;;;;;;13.48;10.73;;;;;;;;;;4897900;29;20040;-79
2021/08/09 01:16:51;;;;;;;13.90;10.63;;;;;;;;;;4906691;29;20051;-79
2021/08/09 01:19:42;;;;;;;20.90;10.75;;;;;;;;;;4919330;29;20032;-80
2021/08/09 01:22:13;;;;;;;14.38;10.27;;;;;;;;;;4897299;29;20047;-79
2021/08/09 01:24:49;;;;;;;11.40;10.25;;;;;;;;;;4905428;29;20075;-78
2021/08/09 01:27:15;;;;;;;12.80;10.27;;;;;;;;;;4904900;29;20095;-81
2021/08/09 01:29:43;;;;;;;14.48;10.80;;;;;;;;;;4899566;29;20119;-80
2021/08/09 01:32:10;;;;;;;16.70;10.23;;;;;;;;;;4908886;29;20038;-79
2021/08/09 01:34:36;;;;;;;14.80;10.25;;;;;;;;;;4906916;29;20040;-79
2021/08/09 01:37:03;;;;;;;15.45;11.10;;;;;;;;;;4899928;29;20028;-79
2021/08/09 01:39:30;;;;;;;14.15;11.48;;;;;;;;;;4900780;29;20036;-80
2021/08/09 01:42:04;;;;;;;13.75;10.32;;;;;;;;;;4904425;29;20024;-79
2021/08/09 01:44:40;;;;;;;12.40;11.07;;;;;;;;;;4903105;29;20036;-80
2021/08/09 01:47:07;;;;;;;18.45;11.20;;;;;;;;;;4894044;29;20114;-80
2021/08/09 01:49:32;;;;;;;24.05;12.18;;;;;;;;;;4900014;29;20091;-80
2021/08/09 01:51:59;;;;;;;15.77;11.80;;;;;;;;;;4905874;29;20032;-81
2021/08/09 01:54:25;;;;;;;14.55;11.35;;;;;;;;;;4897250;29;20124;-79
2021/08/09 01:56:51;;;;;;;16.00;11.23;;;;;;;;;;4904047;29;20145;-80
2021/08/09 01:59:17;;;;;;;14.85;10.82;;;;;;;;;;4904156;29;20032;-79
2021/08/09 02:01:43;;;;;;;17.70;11.30;;;;;;;;;;4904354;29;20164;-78
2021/08/09 02:04:08;;;;;;;14.85;10.73;;;;;;;;;;4904266;29;20032;-80
2021/08/09 02:06:34;;;;;;;18.20;11.60;;;;;;;;;;4903886;29;20036;-79
2021/08/09 02:08:59;;;;;;;13.70;11.45;;;;;;;;;;4905444;29;20107;-80
2021/08/09 02:11:33;;;;;;;20.40;12.68;;;;;;;;;;4902156;29;20036;-80
2021/08/09 02:14:00;;;;;;;14.50;11.77;;;;;;;;;;4903860;29;20032;-80
2021/08/09 02:16:32;;;;;;;14.90;12.18;;;;;;;;;;4902953;29;20037;-81
2021/08/09 02:19:17;;;;;;;15.55;11.68;;;;;;;;;;4896813;29;20041;-80
2021/08/09 02:21:48;;;;;;;18.10;13.43;;;;;;;;;;4896569;29;20033;-80
2021/08/09 02:24:42;;;;;;;14.48;12.50;;;;;;;;;;4903843;29;20107;-79
2021/08/09 02:27:12;;;;;;;20.85;12.82;;;;;;;;;;4876856;29;20528;-79
2021/08/09 02:29:39;;;;;;;19.88;12.57;;;;;;;;;;4903357;29;20399;-80
2021/08/09 02:32:05;;;;;;;18.10;11.70;;;;;;;;;;4905048;29;20028;-80
2021/08/09 02:34:35;;;;;;;19.77;12.68;;;;;;;;;;4901401;29;20489;-80
2021/08/09 02:37:01;;;;;;;18.13;11.90;;;;;;;;;;4906104;29;20135;-80
2021/08/09 02:39:28;;;;;;;15.80;10.13;;;;;;;;;;4907813;29;20032;-78
2021/08/09 02:41:53;;;;;;;17.17;11.55;;;;;;;;;;4905995;29;20036;-79
2021/08/09 02:44:19;;;;;;;20.90;10.77;;;;;;;;;;4901969;29;20030;-79
2021/08/09 02:46:45;;;;;;;18.08;12.57;;;;;;;;;;4901065;29;20123;-80
2021/08/09 02:49:11;;;;;;;16.85;10.57;;;;;;;;;;4905380;29;20044;-80
2021/08/09 02:51:36;;;;;;;17.52;10.95;;;;;;;;;;4902478;29;20072;-80
2021/08/09 02:54:03;;;;;;;18.77;10.07;;;;;;;;;;4903756;29;20031;-80
2021/08/09 02:56:30;;;;;;;17.10;10.20;;;;;;;;;;4896640;29;20479;-80
2021/08/09 02:58:55;;;;;;;17.58;10.48;;;;;;;;;;4903919;29;20035;-80
2021/08/09 03:01:22;;;;;;;14.95;10.27;;;;;;;;;;4906401;29;20056;-81
2021/08/09 03:03:49;;;;;;;14.55;10.73;;;;;;;;;;4905346;29;20531;-80
2021/08/09 03:06:16;;;;;;;16.95;11.50;;;;;;;;;;4907060;29;20177;-80
2021/08/09 03:08:41;;;;;;;17.83;9.75;;;;;;;;;;4904133;29;20122;-81
2021/08/09 03:11:07;;;;;;;18.40;9.88;;;;;;;;;;4906410;29;20519;-80
2021/08/09 03:13:34;;;;;;;14.68;10.32;;;;;;;;;;4901369;29;20032;-80
2021/08/09 03:16:00;;;;;;;20.70;11.18;;;;;;;;;;4906392;29;20132;-81
2021/08/09 03:18:33;;;;;;;22.90;12.55;;;;;;;;;;4902131;29;20028;-80
2021/08/09 03:20:58;;;;;;;16.10;10.90;;;;;;;;;;4898656;29;20400;-80
2021/08/09 03:23:24;;;;;;;17.95;11.52;;;;;;;;;;4900880;29;20034;-81
2021/08/09 03:25:49;;;;;;;19.00;11.43;;;;;;;;;;4910795;29;20044;-80
2021/08/09 03:28:15;;;;;;;22.00;10.60;;;;;;;;;;4908832;29;20044;-80
2021/08/09 03:30:40;;;;;;;14.52;10.90;;;;;;;;;;4905523;29;20043;-80
2021/08/09 03:33:06;;;;;;;18.55;11.68;;;;;;;;;;4906656;29;20025;-81
2021/08/09 03:35:31;;;;;;;19.42;11.38;;;;;;;;;;4905789;29;20084;-81
2021/08/09 03:37:57;;;;;;;15.85;10.80;;;;;;;;;;4895802;29;20043;-81
2021/08/09 03:40:22;;;;;;;21.20;11.25;;;;;;;;;;4914231;29;20028;-81
2021/08/09 03:42:48;;;;;;;17.55;10.05;;;;;;;;;;4907822;29;20127;-82
2021/08/09 03:45:14;;;;;;;15.27;10.90;;;;;;;;;;4907266;29;20119;-81
2021/08/09 03:47:39;;;;;;;17.10;10.90;;;;;;;;;;4900851;29;20033;-80
2021/08/09 03:50:05;;;;;;;19.25;10.02;;;;;;;;;;4909929;29;20032;-80
2021/08/09 03:52:32;;;;;;;20.27;10.45;;;;;;;;;;4908406;29;20487;-81
2021/08/09 03:54:57;;;;;;;13.30;9.57;;;;;;;;;;4918498;29;20040;-81
2021/08/09 03:57:23;;;;;;;13.77;9.75;;;;;;;;;;4925953;29;20063;-79
2021/08/09 03:59:49;;;;;;;15.77;10.65;;;;;;;;;;4927841;29;20032;-81
2021/08/09 04:02:16;;;;;;;20.15;11.05;;;;;;;;;;4906004;29;20507;-80
2021/08/09 04:04:42;;;;;;;15.02;9.50;;;;;;;;;;4900828;29;20032;-80
2021/08/09 04:07:07;;;;;;;14.57;8.90;;;;;;;;;;4910822;29;20431;-80
2021/08/09 04:09:33;;;;;;;18.65;9.93;;;;;;;;;;4906733;29;20040;-80
2021/08/09 04:11:58;;;;;;;15.73;9.52;;;;;;;;;;4902831;29;20400;-77
2021/08/09 04:14:24;;;;;;;14.43;9.55;;;;;;;;;;4907324;29;20523;-79
2021/08/09 04:16:49;;;;;;;17.15;9.65;;;;;;;;;;4906067;29;20551;-79
2021/08/09 04:19:15;;;;;;;14.52;9.50;;;;;;;;;;4917469;29;20034;-79
2021/08/09 04:21:40;;;;;;;17.05;9.27;;;;;;;;;;4925320;29;20048;-79
2021/08/09 04:24:06;;;;;;;18.85;10.15;;;;;;;;;;4924493;29;20036;-80
2021/08/09 04:26:31;;;;;;;17.00;8.85;;;;;;;;;;4912869;29;20028;-80
2021/08/09 04:28:57;;;;;;;12.65;7.90;;;;;;;;;;4908881;29;20074;-80
2021/08/09 04:31:23;;;;;;;8.05;5.82;;;;;;;;;;4906738;29;20084;-80
2021/08/09 04:33:50;;;;;;;8.55;3.95;;;;;;;;;;4907726;29;20025;-80
2021/08/09 04:36:18;;;;;;;6.70;3.03;;;;;;;;;;4909029;29;20051;-81
2021/08/09 04:38:43;;;;;;;6.90;3.45;;;;;;;;;;4908373;29;20044;-81
2021/08/09 04:41:10;;;;;;;7.43;2.97;;;;;;;;;;4909207;29;20368;-80
2021/08/09 04:43:37;;;;;;;7.40;2.67;;;;;;;;;;4907787;29;20040;-80
2021/08/09 04:46:03;;;;;;;7.10;2.78;;;;;;;;;;4905519;29;20444;-81
2021/08/09 04:48:29;;;;;;;6.97;2.50;;;;;;;;;;4898098;29;20518;-81
2021/08/09 04:50:55;;;;;;;12.25;2.65;;;;;;;;;;4905552;29;20035;-81
2021/08/09 04:53:20;;;;;;;10.48;3.30;;;;;;;;;;4903999;29;20040;-81
2021/08/09 04:55:46;;;;;;;21.75;4.53;;;;;;;;;;4904528;29;20024;-81
2021/08/09 04:58:11;;;;;;;29.25;4.47;;;;;;;;;;4909079;29;20050;-80
2021/08/09 05:00:37;;;;;;;35.47;5.40;;;;;;;;;;4909208;29;20043;-81
2021/08/09 05:03:02;;;;;;;34.90;5.75;;;;;;;;;;4903388;29;20644;-79
2021/08/09 05:05:28;;;;;;;38.42;4.97;;;;;;;;;;4900143;29;20064;-81
2021/08/09 05:07:54;;;;;;;48.10;5.30;;;;;;;;;;4897671;29;20399;-80
2021/08/09 05:10:20;;;;;;;37.10;5.45;;;;;;;;;;4897550;29;20510;-81
2021/08/09 05:12:45;;;;;;;31.23;5.70;;;;;;;;;;4897901;29;20037;-81
2021/08/09 05:15:11;;;;;;;37.15;6.05;;;;;;;;;;4897638;29;20111;-81
2021/08/09 05:17:37;;;;;;;29.08;5.07;;;;;;;;;;4897793;29;20112;-81
2021/08/09 05:20:04;;;;;;;32.78;5.07;;;;;;;;;;4897788;29;20139;-82
2021/08/09 05:22:30;;;;;;;36.65;5.10;;;;;;;;;;4897262;29;20021;-81
2021/08/09 05:24:55;;;;;;;28.00;4.55;;;;;;;;;;4897017;29;20032;-80
2021/08/09 05:27:21;;;;;;;32.15;4.15;;;;;;;;;;4897405;29;20032;-81
2021/08/09 05:29:46;;;;;;;9.48;2.58;;;;;;;;;;4897282;29;20107;-81
2021/08/09 05:32:13;;;;;;;21.35;3.28;;;;;;;;;;4897389;29;20024;-80
2021/08/09 05:34:41;;;;;;;11.10;2.75;;;;;;;;;;4897631;29;20036;-82
2021/08/09 05:37:06;;;;;;;12.32;2.72;;;;;;;;;;4897300;29;20024;-81
2021/08/09 05:39:32;;;;;;;11.82;3.08;;;;;;;;;;4901317;29;20047;-81
2021/08/09 05:41:57;;;;;;;10.30;2.45;;;;;;;;;;4907256;29;20036;-80
2021/08/09 05:44:23;;;;;;;9.68;2.53;;;;;;;;;;4901854;29;20036;-82
2021/08/09 05:46:50;;;;;;;9.43;2.50;;;;;;;;;;4896949;29;20033;-82
2021/08/09 05:49:18;;;;;;;12.60;2.67;;;;;;;;;;4895095;29;20055;-81
2021/08/09 05:51:44;;;;;;;16.33;3.53;;;;;;;;;;4896991;29;20089;-81
2021/08/09 05:54:09;;;;;;;13.45;2.60;;;;;;;;;;4896869;29;20040;-82
2021/08/09 05:56:35;;;;;;;17.05;3.38;;;;;;;;;;4897046;29;20032;-80
2021/08/09 05:59:01;;;;;;;26.85;4.28;;;;;;;;;;4895881;29;20048;-81
2021/08/09 06:01:26;;;;;;;21.02;3.53;;;;;;;;;;4896327;29;20063;-80
2021/08/09 06:03:52;;;;;;;21.33;3.90;;;;;;;;;;4896285;29;20125;-80
2021/08/09 06:06:18;;;;;;;23.92;4.22;;;;;;;;;;4894760;29;20055;-79
2021/08/09 06:08:44;;;;;;;30.90;5.25;;;;;;;;;;4896468;29;20632;-79
2021/08/09 06:11:10;;;;;;;23.60;3.92;;;;;;;;;;4896259;29;20108;-80
2021/08/09 06:13:35;;;;;;;25.70;4.55;;;;;;;;;;4896164;29;20107;-82
2021/08/09 06:16:01;;;;;;;32.72;5.53;;;;;;;;;;4896107;29;20156;-82
2021/08/09 06:18:26;;;;;;;22.98;4.30;;;;;;;;;;4895931;29;20040;-81
2021/08/09 06:20:52;;;;;;;30.77;4.75;;;;;;;;;;4896960;29;20111;-81
2021/08/09 06:23:17;;;;;;;36.28;5.30;;;;;;;;;;4896775;29;20051;-81
2021/08/09 06:25:43;;;;;;;29.98;4.07;;;;;;;;;;4896834;29;20036;-82
2021/08/09 06:28:09;;;;;;;27.40;3.88;;;;;;;;;;4895257;29;20047;-82
2021/08/09 06:30:34;;;;;;;30.45;4.35;;;;;;;;;;4896650;29;20044;-82
2021/08/09 06:33:00;;;;;;;13.07;2.80;;;;;;;;;;4897040;29;20071;-82
2021/08/09 06:35:25;;;;;;;14.80;2.83;;;;;;;;;;4895208;29;20032;-81
2021/08/09 06:37:52;;;;;;;13.73;3.33;;;;;;;;;;4903695;29;20495;-82
2021/08/09 06:40:17;;;;;;;8.93;2.60;;;;;;;;;;4903543;29;20043;-81
2021/08/09 06:42:43;;;;;;;9.75;2.95;;;;;;;;;;4900024;29;20032;-81
2021/08/09 06:45:09;;;;;;;11.50;3.00;;;;;;;;;;4900514;29;20043;-81
2021/08/09 06:47:34;;;;;;;39.92;5.28;;;;;;;;;;4900157;29;20036;-81
2021/08/09 06:50:00;;;;;;;10.05;3.35;;;;;;;;;;4900069;29;20055;-81
2021/08/09 06:52:26;;;;;;;11.90;4.80;;;;;;;;;;4900240;29;20039;-81
2021/08/09 06:54:56;;;;;;;15.98;3.03;;;;;;;;;;4899640;29;20055;-80
2021/08/09 06:57:21;;;;;;;11.48;2.55;;;;;;;;;;4899542;29;20398;-81
2021/08/09 06:59:47;;;;;;;16.27;3.28;;;;;;;;;;4899666;29;20115;-81
2021/08/09 07:02:12;;;;;;;8.60;2.25;;;;;;;;;;4899350;29;20060;-81
2021/08/09 07:04:38;;;;;;;4.30;1.90;;;;;;;;;;4899768;29;20040;-80
2021/08/09 07:07:03;;;;;;;7.97;2.95;;;;;;;;;;4899354;29;20452;-80
2021/08/09 07:09:29;;;;;;;9.90;3.53;;;;;;;;;;4899810;29;20384;-81
2021/08/09 07:11:54;;;;;;;13.48;3.42;;;;;;;;;;4899125;29;20029;-80
2021/08/09 07:14:21;;;;;;;11.25;4.13;;;;;;;;;;4899588;29;20037;-81
2021/08/09 07:16:46;;;;;;;11.43;3.67;;;;;;;;;;4899328;29;20066;-81
2021/08/09 07:19:12;;;;;;;8.02;2.90;;;;;;;;;;4898634;29;20064;-81
2021/08/09 07:21:38;;;;;;;13.98;2.97;;;;;;;;;;4899330;29;20037;-82
2021/08/09 07:24:04;;;;;;;7.57;2.75;;;;;;;;;;4899472;29;20028;-81
2021/08/09 07:26:30;;;;;;;6.57;2.40;;;;;;;;;;4898224;29;20111;-80
2021/08/09 07:28:56;;;;;;;11.48;2.25;;;;;;;;;;4899121;29;20183;-81
2021/08/09 07:31:21;;;;;;;8.68;1.85;;;;;;;;;;4898755;29;20096;-80
2021/08/09 07:33:47;;;;;;;6.68;1.80;;;;;;;;;;4898306;29;20120;-81
2021/08/09 07:36:13;;;;;;;6.22;1.80;;;;;;;;;;4911987;29;20527;-81
2021/08/09 07:38:38;;;;;;;6.05;1.50;;;;;;;;;;4899451;29;20048;-80
2021/08/09 07:41:04;;;;;;;11.05;2.22;;;;;;;;;;4898299;29;20081;-79
2021/08/09 07:43:30;;;;;;;12.05;2.45;;;;;;;;;;4899677;29;20403;-81
2021/08/09 07:45:56;;;;;;;8.50;2.30;;;;;;;;;;4899109;29;20488;-80
2021/08/09 07:48:21;;;;;;;10.20;1.92;;;;;;;;;;4896828;29;20155;-80
2021/08/09 07:50:47;;;;;;;14.35;2.05;;;;;;;;;;4898933;29;20119;-79
2021/08/09 07:53:12;;;;;;;8.00;2.05;;;;;;;;;;4898563;29;20068;-80
2021/08/09 07:55:38;;;;;;;9.82;1.92;;;;;;;;;;4899042;29;20088;-80
2021/08/09 07:58:03;;;;;;;9.80;1.70;;;;;;;;;;4897242;29;20407;-81
2021/08/09 08:00:29;;;;;;;10.77;2.25;;;;;;;;;;4899965;29;20452;-79
2021/08/09 08:02:55;;;;;;;8.48;2.05;;;;;;;;;;4903539;29;20088;-79
2021/08/09 08:05:29;;;;;;;3.95;1.40;;;;;;;;;;4907690;29;20036;-78
2021/08/09 08:07:55;;;;;;;5.45;1.52;;;;;;;;;;4903344;29;20403;-78
2021/08/09 08:10:21;;;;;;;9.57;2.22;;;;;;;;;;4905544;29;20041;-78
2021/08/09 08:12:46;;;;;;;6.85;1.48;;;;;;;;;;4901513;29;20036;-79
2021/08/09 08:15:12;;;;;;;5.82;1.75;;;;;;;;;;4908624;29;20039;-79
2021/08/09 08:17:38;;;;;;;8.63;1.63;;;;;;;;;;4898150;29;20068;-78
2021/08/09 08:20:04;;;;;;;4.25;1.48;;;;;;;;;;4905283;29;20040;-79
2021/08/09 08:22:29;;;;;;;3.83;1.42;;;;;;;;;;4907951;29;20474;-79
2021/08/09 08:24:55;;;;;;;6.65;1.55;;;;;;;;;;4904367;29;20032;-79
2021/08/09 08:27:20;;;;;;;2.30;1.25;;;;;;;;;;4903712;29;20051;-79
2021/08/09 08:29:46;;;;;;;9.90;1.85;;;;;;;;;;4904728;29;20040;-79
2021/08/09 08:32:11;;;;;;;4.53;1.42;;;;;;;;;;4905236;29;20126;-79
2021/08/09 08:34:37;;;;;;;2.35;1.30;;;;;;;;;;4904925;29;20037;-77
2021/08/09 08:37:03;;;;;;;6.07;1.52;;;;;;;;;;4898222;29;20111;-77
2021/08/09 08:39:29;;;;;;;7.78;1.40;;;;;;;;;;4904650;29;20044;-78
2021/08/09 08:41:55;;;;;;;7.07;1.48;;;;;;;;;;4897640;29;20495;-78
2021/08/09 08:44:21;;;;;;;4.40;1.45;;;;;;;;;;4905106;29;20035;-78
2021/08/09 08:46:47;;;;;;;7.75;1.35;;;;;;;;;;4906642;29;20416;-78
2021/08/09 08:49:14;;;;;;;3.28;1.30;;;;;;;;;;4907948;29;20048;-78
2021/08/09 08:51:47;;;;;;;4.95;1.50;;;;;;;;;;4906509;29;20060;-77
2021/08/09 08:54:13;;;;;;;5.90;1.60;;;;;;;;;;4904849;29;20043;-77
2021/08/09 08:56:39;;;;;;;6.70;1.98;;;;;;;;;;4904257;29;20044;-77
2021/08/09 08:59:11;;;;;;;11.35;1.70;;;;;;;;;;4896863;29;20032;-79
2021/08/09 09:01:38;;;;;;;5.60;1.60;;;;;;;;;;4904724;29;20080;-78
2021/08/09 09:04:23;;;;;;;2.20;1.23;;;;;;;;;;4907499;29;20035;-78
2021/08/09 09:07:04;;;;;;;5.95;1.65;;;;;;;;;;4898091;29;20047;-75
2021/08/09 09:09:31;;;;;;;6.07;1.70;;;;;;;;;;4905048;29;20056;-78
2021/08/09 09:11:56;;;;;;;5.07;1.58;;;;;;;;;;4905240;29;20050;-78
2021/08/09 09:14:29;;;;;;;7.70;1.58;;;;;;;;;;4897101;29;20496;-77
2021/08/09 09:16:55;;;;;;;3.83;1.45;;;;;;;;;;4897330;29;20130;-77
2021/08/09 09:19:31;;;;;;;10.32;1.85;;;;;;;;;;4897288;29;20032;-77
2021/08/09 09:21:58;;;;;;;7.38;1.73;;;;;;;;;;4911741;29;20117;-76
2021/08/09 09:24:25;;;;;;;7.80;1.65;;;;;;;;;;4902476;29;20044;-76
2021/08/09 09:26:53;;;;;;;10.63;1.75;;;;;;;;;;4904124;29;20043;-77
2021/08/09 09:29:19;;;;;;;5.47;1.60;;;;;;;;;;4895779;29;20048;-78
2021/08/09 09:31:45;;;;;;;5.78;1.50;;;;;;;;;;4897767;29;20542;-77
2021/08/09 09:34:12;;;;;;;3.00;1.23;;;;;;;;;;4896894;29;20040;-80
2021/08/09 09:36:57;;;;;;;5.65;1.48;;;;;;;;;;4895539;29;20056;-82
2021/08/09 09:39:26;;;;;;;5.32;1.40;;;;;;;;;;4896357;29;20043;-83
2021/08/09 09:41:52;;;;;;;5.75;1.55;;;;;;;;;;4908016;29;20024;-83
2021/08/09 09:44:24;;;;;;;3.55;1.60;;;;;;;;;;4911147;29;20042;-79
2021/08/09 09:46:49;;;;;;;6.57;1.65;;;;;;;;;;4904316;29;20083;-80
2021/08/09 09:49:34;;;;;;;3.03;1.60;;;;;;;;;;4904627;29;20445;-81
2021/08/09 09:52:00;;;;;;;4.55;1.50;;;;;;;;;;4897038;29;20123;-81
2021/08/09 09:54:26;;;;;;;6.70;1.50;;;;;;;;;;4904574;29;20119;-81
2021/08/09 09:56:53;;;;;;;2.63;1.38;;;;;;;;;;4897602;29;20036;-80
2021/08/09 09:59:19;;;;;;;5.05;1.80;;;;;;;;;;4894714;29;20047;-81
2021/08/09 10:01:45;;;;;;;6.25;1.65;;;;;;;;;;4899602;29;20084;-81
2021/08/09 10:04:10;;;;;;;6.55;1.65;;;;;;;;;;4905484;29;20023;-81
2021/08/09 10:06:37;;;;;;;4.90;1.60;;;;;;;;;;4915284;29;20029;-79
2021/08/09 10:09:06;;;;;;;3.63;1.35;;;;;;;;;;4921846;29;20020;-82
2021/08/09 10:11:42;;;;;;;3.28;1.50;;;;;;;;;;4907049;29;20047;-83
2021/08/09 10:14:09;;;;;;;4.93;1.50;;;;;;;;;;4903310;29;20044;-81
2021/08/09 10:16:36;;;;;;;4.95;1.42;;;;;;;;;;4909462;29;20032;-83
2021/08/09 10:19:02;;;;;;;5.05;1.50;;;;;;;;;;4911438;29;20064;-81
2021/08/09 10:21:31;;;;;;;4.70;1.58;;;;;;;;;;4905482;29;20033;-83
2021/08/09 10:23:57;;;;;;;3.15;1.35;;;;;;;;;;4910941;29;20040;-81
2021/08/09 10:26:32;;;;;;;9.85;1.52;;;;;;;;;;4912176;29;20024;-82
2021/08/09 10:29:04;;;;;;;11.68;2.08;;;;;;;;;;4913610;29;20036;-82
2021/08/09 10:31:35;;;;;;;3.15;1.55;;;;;;;;;;4931709;29;20036;-83
2021/08/09 10:34:02;;;;;;;5.20;1.30;;;;;;;;;;4914389;29;20653;-83
2021/08/09 10:36:27;;;;;;;4.93;1.52;;;;;;;;;;4902168;29;20119;-83
2021/08/09 10:38:54;;;;;;;3.80;1.30;;;;;;;;;;4900934;29;20064;-83
2021/08/09 10:41:23;;;;;;;4.75;2.13;;;;;;;;;;4908758;29;20025;-83
2021/08/09 10:44:07;;;;;;;6.40;1.63;;;;;;;;;;4908668;29;20040;-84
2021/08/09 10:46:36;;;;;;;7.80;1.70;;;;;;;;;;4905086;29;20032;-80
2021/08/09 10:49:02;;;;;;;9.18;1.60;;;;;;;;;;4908249;29;20043;-83
2021/08/09 10:51:50;;;;;;;5.28;1.63;;;;;;;;;;4905873;29;20035;-84
2021/08/09 10:54:26;;;;;;;5.47;1.45;;;;;;;;;;4907341;29;20522;-83
2021/08/09 10:56:52;;;;;;;8.98;1.80;;;;;;;;;;4900801;29;20039;-82
2021/08/09 10:59:50;;;;;;;9.00;2.22;;;;;;;;;;4903924;29;20028;-83
2021/08/09 11:02:24;;;;;;;6.22;1.90;;;;;;;;;;4894392;29;20087;-83
2021/08/09 11:05:08;;;;;;;5.20;1.80;;;;;;;;;;4908231;29;20051;-83
2021/08/09 11:07:34;;;;;;;4.50;1.60;;;;;;;;;;4899465;29;20543;-83
2021/08/09 11:09:59;;;;;;;4.45;1.40;;;;;;;;;;4902783;29;20032;-88
2021/08/09 11:12:25;;;;;;;1.80;1.33;;;;;;;;;;4910839;29;20119;-84
2021/08/09 11:15:04;;;;;;;4.88;1.60;;;;;;;;;;4911768;29;20028;-87
2021/08/09 11:17:30;;;;;;;3.63;1.70;;;;;;;;;;4907828;29;20047;-89
2021/08/09 11:20:14;;;;;;;4.70;1.63;;;;;;;;;;4908899;29;20117;-89
2021/08/09 11:22:44;;;;;;;10.60;2.20;;;;;;;;;;4907233;29;20024;-88
2021/08/09 11:25:23;;;;;;;3.70;1.40;;;;;;;;;;4909795;29;20143;-89
2021/08/09 11:28:16;;;;;;;5.57;1.65;;;;;;;;;;4908356;29;20044;-89
2021/08/09 11:30:41;;;;;;;4.35;1.50;;;;;;;;;;4913868;29;20079;-89
2021/08/09 11:33:28;;;;;;;6.22;1.63;;;;;;;;;;4912033;29;20028;-87
2021/08/09 11:35:58;;;;;;;4.65;1.70;;;;;;;;;;4917380;29;20039;-88
2021/08/09 11:38:26;;;;;;;5.35;1.63;;;;;;;;;;4904370;29;20032;-88
2021/08/09 11:41:00;;;;;;;3.22;1.48;;;;;;;;;;4902859;29;20040;-89
2021/08/09 11:43:30;;;;;;;4.60;2.10;;;;;;;;;;4909899;29;20123;-89
2021/08/09 11:46:01;;;;;;;6.35;1.90;;;;;;;;;;4911501;29;20608;-83
2021/08/09 11:48:31;;;;;;;4.93;1.45;;;;;;;;;;4900827;29;20048;-82
2021/08/09 11:51:00;;;;;;;4.05;1.58;;;;;;;;;;4916639;29;20064;-86
2021/08/09 11:53:26;;;;;;;3.58;1.70;;;;;;;;;;4912389;29;20399;-88
2021/08/09 11:56:08;;;;;;;5.15;1.83;;;;;;;;;;4906103;29;20451;-88
2021/08/09 11:58:35;;;;;;;3.25;1.50;;;;;;;;;;4902762;29;21298;-85
2021/08/09 12:01:01;;;;;;;3.40;1.45;;;;;;;;;;4907684;29;20080;-86
2021/08/09 12:03:27;;;;;;;9.70;2.22;;;;;;;;;;4916681;29;20039;-87
2021/08/09 12:05:55;;;;;;;7.53;2.10;;;;;;;;;;4915430;29;20498;-84
2021/08/09 12:08:21;;;;;;;4.22;2.22;;;;;;;;;;4903200;29;20052;-87
2021/08/09 12:10:47;;;;;;;3.72;1.50;;;;;;;;;;4915147;29;20040;-87
2021/08/09 12:13:23;;;;;;;3.13;1.73;;;;;;;;;;4915801;29;20036;-89
2021/08/09 12:16:07;;;;;;;3.72;1.60;;;;;;;;;;4895182;29;20510;-88
2021/08/09 12:18:32;;;;;;;6.95;1.48;;;;;;;;;;4901230;29;20059;-88
2021/08/09 12:21:13;;;;;;;5.15;1.60;;;;;;;;;;4918120;29;20552;-88
2021/08/09 12:26:04;;;;;;;;;;;;;;;;;;4937972;23;20059;-85
2021/08/09 12:28:29;;;;;;;;;;;;;;;;;;4926604;29;19927;-86
2021/08/09 12:30:55;;;;;;;3.23;1.30;;;;;;;;;;4946188;29;19966;-85
2021/08/09 12:33:20;;;;;;;3.15;1.50;;;;;;;;;;4947024;28;20028;-86
2021/08/09 12:35:46;;;;;;;5.22;1.58;;;;;;;;;;4926999;29;20035;-84
2021/08/09 12:38:12;;;;;;;7.25;1.50;;;;;;;;;;4925736;29;20109;-86
2021/08/09 12:40:42;;;;;;;3.58;1.55;;;;;;;;;;4944660;29;20030;-84
2021/08/09 12:43:09;;;;;;;5.47;1.58;;;;;;;;;;4929023;29;20546;-86
2021/08/09 12:45:37;;;;;;;4.57;1.65;;;;;;;;;;4945714;29;20027;-85
2021/08/09 12:48:03;;;;;;;4.13;1.50;;;;;;;;;;4943607;29;20550;-85
2021/08/09 12:50:29;;;;;;;6.38;1.60;;;;;;;;;;4928166;29;20046;-86
2021/08/09 12:52:55;;;;;;;6.50;1.65;;;;;;;;;;4938614;29;20028;-85
2021/08/09 12:55:23;;;;;;;4.60;1.67;;;;;;;;;;4935875;29;20036;-85
2021/08/09 12:57:52;;;;;;;5.28;1.50;;;;;;;;;;4935746;29;20467;-85
2021/08/09 13:00:18;;;;;;;3.95;1.35;;;;;;;;;;4940857;29;20070;-84
2021/08/09 13:02:43;;;;;;;4.50;1.50;;;;;;;;;;4920342;29;20034;-82
2021/08/09 13:05:09;;;;;;;2.95;1.92;;;;;;;;;;4943845;29;20039;-84
2021/08/09 13:07:35;;;;;;;3.97;1.55;;;;;;;;;;4940245;29;20059;-86
2021/08/09 13:10:00;;;;;;;4.53;1.48;;;;;;;;;;4925517;29;20566;-85
2021/08/09 13:12:26;;;;;;;4.13;1.58;;;;;;;;;;4942101;29;20055;-87
2021/08/09 13:14:52;;;;;;;5.05;1.60;;;;;;;;;;4947462;29;20035;-87
2021/08/09 13:17:18;;;;;;;7.38;2.03;;;;;;;;;;4947870;29;20023;-84
2021/08/09 13:19:44;;;;;;;4.28;1.60;;;;;;;;;;4941546;23;20530;-80
2021/08/09 13:22:09;;;;;;;5.72;1.98;;;;;;;;;;4922281;29;20091;-85
2021/08/09 13:27:12;;;;;;;4.55;2.15;;;;;;;;;;5051448;23;20027;-87
2021/08/09 13:29:46;;;;;;;8.70;2.40;;;;;;;;;;4917854;29;20047;-87
2021/08/09 13:37:20;;;;;;;7.55;2.10;;;;;;;;;;4919353;29;20048;-81
2021/08/09 13:39:45;;;;;;;5.60;1.60;;;;;;;;;;4914145;29;20035;-86
2021/08/09 13:42:11;;;;;;;5.70;1.70;;;;;;;;;;4919460;29;20126;-86
2021/08/09 13:44:39;;;;;;;5.57;1.92;;;;;;;;;;4916446;29;20499;-86
2021/08/09 13:47:05;;;;;;;8.60;1.83;;;;;;;;;;4919212;29;20110;-85
2021/08/09 13:49:31;;;;;;;5.00;1.65;;;;;;;;;;4915234;29;20131;-82
2021/08/09 13:51:56;;;;;;;2.03;1.50;;;;;;;;;;4915687;29;20166;-85
2021/08/09 13:54:23;;;;;;;3.67;1.55;;;;;;;;;;4915695;29;20043;-81
2021/08/09 13:56:48;;;;;;;2.25;1.40;;;;;;;;;;4914969;29;20024;-82
2021/08/09 13:59:14;;;;;;;2.72;1.48;;;;;;;;;;4914764;29;20123;-82
2021/08/09 14:01:39;;;;;;;4.28;1.60;;;;;;;;;;4915883;29;20043;-82
2021/08/09 14:04:05;;;;;;;5.05;1.70;;;;;;;;;;4913163;29;20509;-83
2021/08/09 14:06:31;;;;;;;6.50;1.70;;;;;;;;;;4914096;29;20083;-82
2021/08/09 14:08:58;;;;;;;3.78;1.60;;;;;;;;;;4915415;29;20459;-85
2021/08/09 14:11:24;;;;;;;3.30;1.30;;;;;;;;;;4913536;29;20028;-81
2021/08/09 14:13:49;;;;;;;2.65;1.50;;;;;;;;;;4912701;29;20065;-82
2021/08/09 14:16:15;;;;;;;4.47;1.50;;;;;;;;;;4915138;29;20047;-87
2021/08/09 14:18:43;;;;;;;4.95;1.63;;;;;;;;;;4916006;29;20032;-83
2021/08/09 14:21:12;;;;;;;3.97;1.77;;;;;;;;;;4915747;29;20095;-84
2021/08/09 14:26:39;;;;;;;6.47;1.80;;;;;;;;;;4945195;23;20082;-83
2021/08/09 14:29:15;;;;;;;2.13;1.40;;;;;;;;;;4931945;29;20040;-83
2021/08/09 14:31:55;;;;;;;;;;;;;;;;;;4935102;29;20027;-83
2021/08/09 14:34:21;;;;;;;3.70;1.52;;;;;;;;;;4934990;29;19915;-83
2021/08/09 14:36:46;;;;;;;4.65;1.50;;;;;;;;;;4932978;29;20191;-82
2021/08/09 14:39:15;;;;;;;7.20;1.75;;;;;;;;;;4935208;29;20047;-84
2021/08/09 14:41:46;;;;;;;4.65;1.60;;;;;;;;;;4933979;29;20143;-84
2021/08/09 14:44:12;;;;;;;2.45;1.52;;;;;;;;;;4938847;29;20035;-83
2021/08/09 14:46:37;;;;;;;7.43;1.83;;;;;;;;;;4935511;29;20047;-83
2021/08/09 14:49:06;;;;;;;10.73;1.80;;;;;;;;;;4917837;29;20050;-84